Terminal Aerodrome Forecast
Issued by NWS Cleveland, OH

Home | Current Version | Previous Version | Graphics & Text | Print | Product List | Glossary On
Versions: 1 2 3 4 5 6 7 8 9 10 11 12 13 14 15 16 17 18 19 20 21 22
327
FTUS41 KCLE 210441 AAA
TAFMFD
TAF AMD
KMFD 210441Z 2105/2124 05005KT 1/4SM FG BKN002
      TEMPO 2107/2111 33004KT 1SM -SHRA OVC005
     FM211100 32005KT 2SM BR OVC008
     FM211400 33008KT P6SM OVC015
     FM211800 31010KT P6SM SCT035=

USA.gov is the U.S. government's official web portal to all federal, state and local government web resources and services.